Time;durP1;ratioP1;P1;durP2;ratioP2;P2;SDS_P1;SDS_P2;PMS_P1;PMS_P2;Temp;Humidity;BMP_temperature;BMP_pressure;BME280_temperature;BME280_humidity;BME280_pressure;Samples;Min_cycle;Max_cycle;Signal;HPM_P1;HPM_P2
2021/05/13 00:01:27;;;;;;;2.37;1.57;;;;;;;-143.37;100.00;65745.06;5093619;28;20232;-71
2021/05/13 00:03:55;;;;;;;2.87;1.93;;;;;;;-143.37;100.00;65745.06;5093610;28;20291;-70
2021/05/13 00:06:22;;;;;;;2.40;1.97;;;;;;;-143.37;100.00;65745.06;5091946;28;20656;-71
2021/05/13 00:08:55;;;;;;;2.87;1.83;;;;;;;-143.37;100.00;65745.06;5093407;28;20204;-70
2021/05/13 00:11:34;;;;;;;2.63;1.53;;;;;;;-143.37;100.00;65745.06;5093435;28;20251;-71
2021/05/13 00:14:04;;;;;;;2.60;1.93;;;;;;;-143.37;100.00;65745.06;5091185;28;20262;-71
2021/05/13 00:16:33;;;;;;;1.30;1.00;;;;;;;-143.37;100.00;65745.06;5091766;28;20241;-70
2021/05/13 00:19:05;;;;;;;3.37;1.90;;;;;;;-143.37;100.00;65745.06;5093054;28;20244;-70
2021/05/13 00:21:32;;;;;;;2.90;1.60;;;;;;;-143.37;100.00;65745.06;5093244;28;20295;-71
2021/05/13 00:23:59;;;;;;;2.20;1.43;;;;;;;-143.37;100.00;65745.06;5093401;28;20231;-71
2021/05/13 00:26:37;;;;;;;2.43;1.60;;;;;;;-143.37;100.00;65745.06;5092765;28;20608;-71
2021/05/13 00:29:11;;;;;;;4.07;1.80;;;;;;;-143.37;100.00;65745.06;5091980;28;20248;-70
2021/05/13 00:31:39;;;;;;;2.57;1.73;;;;;;;-143.37;100.00;65745.06;5075079;28;20247;-70
2021/05/13 00:34:07;;;;;;;3.03;2.00;;;;;;;-143.37;100.00;65745.06;5092963;28;20215;-70
2021/05/13 00:36:35;;;;;;;2.30;1.60;;;;;;;-143.37;100.00;65745.06;5092819;28;20303;-70
2021/05/13 00:39:06;;;;;;;1.97;1.77;;;;;;;-143.37;100.00;65745.06;5091826;28;20232;-70
2021/05/13 00:41:33;;;;;;;1.43;1.33;;;;;;;-143.37;100.00;65745.06;5092806;28;20360;-70
2021/05/13 00:43:59;;;;;;;3.73;1.90;;;;;;;-143.37;100.00;65745.06;5079593;28;20201;-70
2021/05/13 00:46:26;;;;;;;2.97;2.07;;;;;;;-143.37;100.00;65745.06;5072073;28;20709;-70
2021/05/13 00:49:01;;;;;;;2.60;1.80;;;;;;;-143.37;100.00;65745.06;5072400;28;20657;-69
2021/05/13 00:51:28;;;;;;;3.83;1.97;;;;;;;-143.37;100.00;65745.06;5113089;28;20671;-71
2021/05/13 00:53:56;;;;;;;3.77;1.60;;;;;;;-143.37;100.00;65745.06;5112196;28;20239;-71
2021/05/13 00:56:23;;;;;;;2.00;1.80;;;;;;;-143.37;100.00;65745.06;5113001;28;20199;-71
2021/05/13 00:58:51;;;;;;;3.83;2.27;;;;;;;-143.37;100.00;65745.06;5081942;28;20311;-71
2021/05/13 01:34:21;;;;;;;1.87;1.50;;;;;;;;;;5109545;27;20595;-71
2021/05/13 01:36:48;;;;;;;2.93;2.00;;;;;;;;;;5109767;28;20314;-71
2021/05/13 01:39:16;;;;;;;6.13;2.77;;;;;;;;;;5109661;28;20196;-71
2021/05/13 01:41:43;;;;;;;3.53;1.73;;;;;;;;;;5094210;28;20562;-71
2021/05/13 01:44:09;;;;;;;2.17;1.60;;;;;;;;;;5095338;28;20564;-71
2021/05/13 01:46:36;;;;;;;2.97;2.37;;;;;;;;;;5102848;28;20243;-72
2021/05/13 01:49:14;;;;;;;3.10;2.23;;;;;;;;;;5106252;28;20298;-71
2021/05/13 01:51:41;;;;;;;3.33;2.13;;;;;;;;;;5124778;27;20290;-71
2021/05/13 01:54:08;;;;;;;4.83;2.43;;;;;;;;;;5123973;27;20227;-71
2021/05/13 01:56:34;;;;;;;6.17;2.40;;;;;;;;;;5126748;28;20659;-71
2021/05/13 01:59:00;;;;;;;5.20;2.47;;;;;;;;;;5113167;27;20573;-70
2021/05/13 02:01:28;;;;;;;1.77;1.53;;;;;;;;;;5109226;28;20581;-70
2021/05/13 02:03:55;;;;;;;2.03;1.70;;;;;;;;;;5108051;28;20215;-70
2021/05/13 02:06:21;;;;;;;3.43;2.13;;;;;;;;;;5107737;28;20204;-71
2021/05/13 02:08:48;;;;;;;2.60;1.97;;;;;;;;;;5109119;28;20207;-70
2021/05/13 02:11:14;;;;;;;1.97;1.43;;;;;;;;;;5107712;28;20651;-71
2021/05/13 02:13:40;;;;;;;3.03;2.37;;;;;;;;;;5109255;28;20314;-70
2021/05/13 02:16:07;;;;;;;2.43;1.73;;;;;;;;;;5107788;28;20204;-70
2021/05/13 02:18:33;;;;;;;3.17;1.90;;;;;;;;;;5108858;28;20230;-74
2021/05/13 02:21:00;;;;;;;4.40;2.37;;;;;;;;;;5108997;28;20341;-70
2021/05/13 02:23:26;;;;;;;3.07;2.03;;;;;;;;;;5107430;28;20664;-70
2021/05/13 02:25:53;;;;;;;4.27;2.50;;;;;;;;;;5108395;28;20203;-70
2021/05/13 02:28:19;;;;;;;2.90;2.10;;;;;;;;;;5108813;28;20255;-71
2021/05/13 02:30:45;;;;;;;2.73;1.93;;;;;;;;;;5108777;28;20234;-70
2021/05/13 02:33:12;;;;;;;3.07;2.10;;;;;;;;;;5108361;28;20697;-70
2021/05/13 02:35:38;;;;;;;3.50;2.23;;;;;;;;;;5108241;28;20200;-70
2021/05/13 02:38:05;;;;;;;1.93;1.63;;;;;;;;;;5107307;28;20281;-70
2021/05/13 02:40:32;;;;;;;1.60;1.30;;;;;;;;;;5108320;28;20204;-70
2021/05/13 02:42:59;;;;;;;3.40;1.93;;;;;;;;;;5105252;28;20201;-70
2021/05/13 02:45:26;;;;;;;2.83;1.63;;;;;;;;;;5076041;28;20209;-70
2021/05/13 02:47:52;;;;;;;3.33;2.57;;;;;;;;;;5074606;28;20277;-70
2021/05/13 02:50:19;;;;;;;4.80;2.43;;;;;;;;;;5097079;28;20638;-71
2021/05/13 02:52:45;;;;;;;3.53;1.83;;;;;;;;;;5114843;28;20224;-70
2021/05/13 02:55:12;;;;;;;3.43;2.03;;;;;;;;;;5096492;28;20196;-70
2021/05/13 02:57:39;;;;;;;2.30;1.77;;;;;;;;;;5110687;28;20280;-71
2021/05/13 03:00:27;;;;;;;3.00;2.13;;;;;;;;;;5093345;28;20299;-70
2021/05/13 03:02:54;;;;;;;2.70;1.70;;;;;;;;;;5093540;28;20218;-70
2021/05/13 03:05:25;;;;;;;3.87;2.80;;;;;;;;;;5094260;28;20209;-70
2021/05/13 03:07:54;;;;;;;3.07;2.00;;;;;;;;;;5093081;28;20650;-70
2021/05/13 03:10:35;;;;;;;2.93;1.90;;;;;;;;;;5094310;28;20669;-71
2021/05/13 03:13:02;;;;;;;3.40;2.20;;;;;;;;;;5093340;28;20239;-70
2021/05/13 03:15:29;;;;;;;1.97;1.70;;;;;;;;;;5093957;28;20201;-71
2021/05/13 03:17:56;;;;;;;3.83;2.00;;;;;;;;;;5092920;28;20267;-71
2021/05/13 03:20:27;;;;;;;3.80;2.33;;;;;;;;;;5094134;28;20568;-71
2021/05/13 03:22:57;;;;;;;2.23;1.50;;;;;;;;;;5093118;28;20210;-71
2021/05/13 03:25:29;;;;;;;3.13;1.80;;;;;;;;;;5093909;28;20778;-71
2021/05/13 03:28:07;;;;;;;3.33;1.87;;;;;;;;;;5094279;28;20366;-70
2021/05/13 03:30:37;;;;;;;2.43;1.70;;;;;;;;;;5094145;28;20200;-71
2021/05/13 03:33:04;;;;;;;4.97;2.37;;;;;;;;;;5092712;28;20311;-70
2021/05/13 03:35:31;;;;;;;3.17;2.17;;;;;;;;;;5093690;28;20239;-70
2021/05/13 03:37:58;;;;;;;2.80;2.10;;;;;;;;;;5076008;28;20274;-71
2021/05/13 03:40:24;;;;;;;3.00;2.33;;;;;;;;;;5093847;28;20204;-71
2021/05/13 03:42:51;;;;;;;3.00;2.10;;;;;;;;;;5091567;28;20210;-70
2021/05/13 03:45:17;;;;;;;3.80;2.30;;;;;;;;;;5073163;28;20300;-70
2021/05/13 03:47:44;;;;;;;3.03;2.37;;;;;;;;;;5073657;28;20264;-70
2021/05/13 03:50:10;;;;;;;5.37;2.93;;;;;;;;;;5073507;28;20625;-70
2021/05/13 03:52:37;;;;;;;3.93;1.97;;;;;;;;;;5073186;28;20655;-70
2021/05/13 03:55:03;;;;;;;2.67;1.90;;;;;;;;;;5073055;28;20244;-70
2021/05/13 03:57:30;;;;;;;3.57;2.23;;;;;;;;;;5075141;28;20306;-69
2021/05/13 03:59:58;;;;;;;6.73;1.87;;;;;;;;;;5093499;28;20228;-70
2021/05/13 04:02:32;;;;;;;2.83;2.10;;;;;;;;;;5093521;28;20200;-69
2021/05/13 04:04:59;;;;;;;3.00;2.20;;;;;;;;;;5093588;28;20231;-70
2021/05/13 04:07:27;;;;;;;4.33;1.93;;;;;;;;;;5093583;28;20217;-70
2021/05/13 04:09:54;;;;;;;2.20;1.73;;;;;;;;;;5093205;28;20240;-70
2021/05/13 04:12:20;;;;;;;3.67;2.27;;;;;;;;;;5093378;28;20207;-69
2021/05/13 04:14:47;;;;;;;2.67;1.53;;;;;;;;;;5092855;28;20717;-70
2021/05/13 04:17:13;;;;;;;3.23;2.17;;;;;;;;;;5093390;28;20281;-70
2021/05/13 04:19:39;;;;;;;3.20;2.10;;;;;;;;;;5091937;28;20230;-70
2021/05/13 04:22:07;;;;;;;3.27;2.20;;;;;;;;;;5093059;28;20371;-69
2021/05/13 04:24:33;;;;;;;3.07;2.13;;;;;;;;;;5092763;28;20196;-69
2021/05/13 04:27:01;;;;;;;4.27;2.20;;;;;;;;;;5091652;28;20791;-69
2021/05/13 04:29:27;;;;;;;2.63;2.23;;;;;;;;;;5093051;28;20211;-70
2021/05/13 04:31:54;;;;;;;6.17;2.10;;;;;;;;;;5092769;28;20287;-70
2021/05/13 04:34:20;;;;;;;3.23;2.50;;;;;;;;;;5092491;28;20231;-70
2021/05/13 04:36:47;;;;;;;3.87;2.23;;;;;;;;;;5092621;28;20256;-70
2021/05/13 04:39:13;;;;;;;3.97;2.57;;;;;;;;;;5092712;28;20204;-70
2021/05/13 04:41:40;;;;;;;8.63;2.30;;;;;;;;;;5092883;28;20291;-70
2021/05/13 04:44:07;;;;;;;3.70;2.23;;;;;;;;;;5078694;28;20239;-69
2021/05/13 04:46:35;;;;;;;3.27;2.37;;;;;;;;;;5071959;28;20296;-69
2021/05/13 04:51:29;;;;;;;2.83;1.80;;;;;;;;;;5112815;28;20243;-71
2021/05/13 04:53:56;;;;;;;2.50;1.77;;;;;;;;;;5112564;28;20274;-70
2021/05/13 04:56:22;;;;;;;2.77;2.13;;;;;;;;;;5081969;28;20200;-70
2021/05/13 04:58:49;;;;;;;4.47;2.47;;;;;;;;;;5081252;28;20606;-71
2021/05/13 05:01:16;;;;;;;3.33;2.13;;;;;;;;;;5086335;28;20214;-69
2021/05/13 05:03:42;;;;;;;2.37;1.60;;;;;;;;;;5086552;28;20208;-70
2021/05/13 05:06:10;;;;;;;2.03;1.60;;;;;;;;;;5086353;28;20300;-69
2021/05/13 05:08:37;;;;;;;2.97;1.90;;;;;;;;;;5086016;28;20303;-69
2021/05/13 05:11:03;;;;;;;2.70;2.30;;;;;;;;;;5091159;28;20465;-69
2021/05/13 05:13:30;;;;;;;4.00;1.73;;;;;;;;;;5091859;28;20271;-69
2021/05/13 05:15:57;;;;;;;2.53;2.13;;;;;;;;;;5091982;28;20219;-70
2021/05/13 05:18:24;;;;;;;2.63;1.80;;;;;;;;;;5074149;28;20303;-69
2021/05/13 05:20:51;;;;;;;4.20;2.37;;;;;;;;;;5091891;28;20243;-69
2021/05/13 05:23:18;;;;;;;2.50;1.67;;;;;;;;;;5091973;28;20215;-69
2021/05/13 05:25:45;;;;;;;3.30;2.20;;;;;;;;;;5091891;28;20307;-69
2021/05/13 05:28:12;;;;;;;3.47;1.90;;;;;;;;;;5092101;28;20263;-70
2021/05/13 05:30:39;;;;;;;2.73;1.50;;;;;;;;;;5091026;28;20627;-69
2021/05/13 05:33:06;;;;;;;2.63;2.13;;;;;;;;;;5091787;28;20685;-69
2021/05/13 05:35:37;;;;;;;2.83;2.10;;;;;;;;;;5091601;28;20228;-70
2021/05/13 05:38:04;;;;;;;2.77;2.17;;;;;;;;;;5090532;28;20234;-70
2021/05/13 05:40:31;;;;;;;2.67;1.67;;;;;;;;;;5092148;28;20296;-70
2021/05/13 05:42:58;;;;;;;2.00;1.40;;;;;;;;;;5088793;28;20193;-70
2021/05/13 05:45:25;;;;;;;2.47;1.90;;;;;;;;;;5070713;28;20233;-71
2021/05/13 05:47:52;;;;;;;2.97;2.10;;;;;;;;;;5071578;28;20287;-70
2021/05/13 05:50:19;;;;;;;1.90;1.57;;;;;;;;;;5095290;28;20234;-70
2021/05/13 05:52:46;;;;;;;3.73;2.03;;;;;;;;;;5112223;28;20231;-69
2021/05/13 05:55:13;;;;;;;2.17;1.63;;;;;;;;;;5110590;28;20228;-70
2021/05/13 05:57:40;;;;;;;2.47;1.40;;;;;;;;;;5107637;28;20253;-70
2021/05/13 06:00:07;;;;;;;2.20;1.10;;;;;;;;;;5091737;28;20244;-70
2021/05/13 06:02:33;;;;;;;3.03;1.77;;;;;;;;;;5091505;28;20201;-70
2021/05/13 06:05:00;;;;;;;1.60;1.40;;;;;;;;;;5091697;28;20204;-69
2021/05/13 06:07:27;;;;;;;14.20;1.57;;;;;;;;;;5091784;28;20232;-70
2021/05/13 06:09:55;;;;;;;1.40;1.10;;;;;;;;;;5090578;28;20288;-69
2021/05/13 06:12:22;;;;;;;3.00;2.10;;;;;;;;;;5091626;28;20236;-71
2021/05/13 06:14:49;;;;;;;3.73;1.57;;;;;;;;;;5091237;28;20687;-71
2021/05/13 06:17:16;;;;;;;1.33;1.20;;;;;;;;;;5091388;28;20228;-70
2021/05/13 06:19:42;;;;;;;1.63;1.20;;;;;;;;;;5093050;28;20204;-70
2021/05/13 06:22:09;;;;;;;1.77;1.40;;;;;;;;;;5094188;28;20243;-70
2021/05/13 06:24:35;;;;;;;3.30;1.63;;;;;;;;;;5095424;28;20204;-70
2021/05/13 06:27:02;;;;;;;2.17;1.50;;;;;;;;;;5095234;28;20255;-69
2021/05/13 06:29:29;;;;;;;2.90;1.40;;;;;;;;;;5095160;28;20245;-70
2021/05/13 06:31:56;;;;;;;2.37;1.50;;;;;;;;;;5094979;28;20208;-69
2021/05/13 06:34:24;;;;;;;2.23;1.63;;;;;;;;;;5094985;28;20311;-70
2021/05/13 06:36:51;;;;;;;1.50;1.20;;;;;;;;;;5095016;28;20228;-69
2021/05/13 06:39:18;;;;;;;2.63;1.63;;;;;;;;;;5094161;28;20259;-69
2021/05/13 06:41:44;;;;;;;2.13;1.80;;;;;;;;;;5095025;28;20204;-69
2021/05/13 06:44:11;;;;;;;2.03;1.57;;;;;;;;;;5081635;28;20205;-70
2021/05/13 06:46:37;;;;;;;2.03;1.30;;;;;;;;;;5074154;28;20251;-70
2021/05/13 06:49:04;;;;;;;3.07;2.10;;;;;;;;;;5076180;28;20208;-68
2021/05/13 06:51:30;;;;;;;2.27;1.57;;;;;;;;;;5115265;28;20279;-67
2021/05/13 06:53:57;;;;;;;1.20;1.10;;;;;;;;;;5114951;28;20307;-68
2021/05/13 06:56:23;;;;;;;2.13;1.50;;;;;;;;;;5114826;28;20668;-68
2021/05/13 06:58:50;;;;;;;2.53;1.57;;;;;;;;;;5100696;28;20201;-69
2021/05/13 07:01:16;;;;;;;2.73;1.60;;;;;;;;;;5095093;28;20204;-68
2021/05/13 07:03:43;;;;;;;2.00;1.53;;;;;;;;;;5093627;28;20208;-68
2021/05/13 07:06:09;;;;;;;1.63;1.40;;;;;;;;;;5094426;28;20638;-68
2021/05/13 07:08:36;;;;;;;3.60;1.53;;;;;;;;;;5094649;28;20263;-68
2021/05/13 07:11:02;;;;;;;2.80;1.40;;;;;;;;;;5094513;28;20240;-69
2021/05/13 07:13:29;;;;;;;2.33;1.63;;;;;;;;;;5094419;28;20204;-69
2021/05/13 07:15:55;;;;;;;3.73;1.60;;;;;;;;;;5094337;28;20205;-68
2021/05/13 07:18:21;;;;;;;1.60;1.37;;;;;;;;;;5094426;28;20217;-68
2021/05/13 07:20:48;;;;;;;1.73;1.33;;;;;;;;;;5094331;28;20197;-68
2021/05/13 07:23:14;;;;;;;4.83;1.67;;;;;;;;;;5094281;28;20201;-69
2021/05/13 07:25:41;;;;;;;1.33;1.07;;;;;;;;;;5094133;28;20284;-69
2021/05/13 07:28:08;;;;;;;1.10;1.00;;;;;;;;;;5093992;28;20228;-69
2021/05/13 07:30:35;;;;;;;1.53;1.10;;;;;;;;;;5080468;28;20286;-69
2021/05/13 07:33:01;;;;;;;0.87;0.87;;;;;;;;;;5091365;28;20688;-68
2021/05/13 07:35:29;;;;;;;1.17;0.90;;;;;;;;;;5091815;28;20708;-68
2021/05/13 07:37:56;;;;;;;2.03;1.20;;;;;;;;;;5092106;28;20312;-69
2021/05/13 07:40:23;;;;;;;1.80;1.00;;;;;;;;;;5091899;28;20232;-69
2021/05/13 07:42:50;;;;;;;1.17;0.97;;;;;;;;;;5091631;28;20204;-68
2021/05/13 07:45:16;;;;;;;1.33;1.00;;;;;;;;;;5090302;28;20247;-71
2021/05/13 07:47:44;;;;;;;1.33;0.90;;;;;;;;;;5073709;28;20286;-69
2021/05/13 07:50:15;;;;;;;5.10;1.23;;;;;;;;;;5086243;28;20337;-68
2021/05/13 07:52:41;;;;;;;1.93;1.30;;;;;;;;;;5083745;28;20678;-69
2021/05/13 07:55:08;;;;;;;1.50;1.20;;;;;;;;;;5084926;28;20232;-70
2021/05/13 07:57:34;;;;;;;0.97;0.90;;;;;;;;;;5085914;28;20300;-69
2021/05/13 08:00:03;;;;;;;0.80;0.77;;;;;;;;;;5066093;28;20189;-71
2021/05/13 08:02:30;;;;;;;1.40;1.07;;;;;;;;;;5085546;28;20799;-69
2021/05/13 08:04:56;;;;;;;1.00;0.80;;;;;;;;;;5087122;28;20287;-69
2021/05/13 08:07:23;;;;;;;0.83;0.83;;;;;;;;;;5090232;28;20221;-69
2021/05/13 08:09:50;;;;;;;1.30;1.20;;;;;;;;;;5091135;28;20241;-69
2021/05/13 08:12:17;;;;;;;1.03;0.83;;;;;;;;;;5090920;28;20632;-69
2021/05/13 08:14:44;;;;;;;0.90;0.80;;;;;;;;;;5090731;28;20803;-69
2021/05/13 08:17:11;;;;;;;1.07;0.90;;;;;;;;;;5084891;28;20603;-68
2021/05/13 08:19:38;;;;;;;1.40;1.00;;;;;;;;;;5088225;28;20209;-69
2021/05/13 08:22:04;;;;;;;0.63;0.63;;;;;;;;;;5089304;28;20197;-69
2021/05/13 08:24:31;;;;;;;1.00;0.90;;;;;;;;;;5088214;28;20240;-69
2021/05/13 08:27:00;;;;;;;0.80;0.80;;;;;;;;;;5072330;28;20315;-69
2021/05/13 08:29:28;;;;;;;3.40;1.17;;;;;;;;;;5088991;28;20236;-69
2021/05/13 08:31:55;;;;;;;2.67;1.50;;;;;;;;;;5090223;28;20287;-68
2021/05/13 08:34:21;;;;;;;3.50;1.53;;;;;;;;;;5089475;28;20224;-68
2021/05/13 08:36:48;;;;;;;3.53;1.47;;;;;;;;;;5089778;28;20744;-68
2021/05/13 08:39:15;;;;;;;2.20;1.30;;;;;;;;;;5089697;28;20610;-69
2021/05/13 08:41:41;;;;;;;1.63;1.07;;;;;;;;;;5090011;28;20219;-70
2021/05/13 08:44:09;;;;;;;1.20;0.97;;;;;;;;;;5089993;28;20243;-70
2021/05/13 08:46:36;;;;;;;0.57;0.57;;;;;;;;;;5088692;28;20231;-69
2021/05/13 08:49:03;;;;;;;0.83;0.80;;;;;;;;;;5089698;28;20211;-68
2021/05/13 08:51:31;;;;;;;3.53;0.70;;;;;;;;;;5088461;28;20216;-69
2021/05/13 08:53:58;;;;;;;0.57;0.57;;;;;;;;;;5088775;28;20727;-70
2021/05/13 08:56:26;;;;;;;1.23;1.03;;;;;;;;;;5089875;28;20622;-69
2021/05/13 08:58:53;;;;;;;0.60;0.60;;;;;;;;;;5089983;28;20224;-70
2021/05/13 09:01:22;;;;;;;1.93;1.10;;;;;;;;;;5089807;28;20674;-71
2021/05/13 09:03:49;;;;;;;1.97;0.90;;;;;;;;;;5087835;28;20200;-71
2021/05/13 09:06:22;;;;;;;0.90;0.80;;;;;;;;;;5089906;28;20299;-69
2021/05/13 09:08:48;;;;;;;1.27;0.67;;;;;;;;;;5089673;28;20579;-71
2021/05/13 09:11:18;;;;;;;2.17;1.13;;;;;;;;;;5089482;28;20215;-71
2021/05/13 09:13:57;;;;;;;1.80;1.13;;;;;;;;;;5089150;28;20672;-73
2021/05/13 09:16:25;;;;;;;1.77;1.00;;;;;;;;;;5089947;28;20232;-72
2021/05/13 09:18:52;;;;;;;0.73;0.70;;;;;;;;;;5073022;28;20200;-74
2021/05/13 09:21:18;;;;;;;0.53;0.53;;;;;;;;;;5086338;28;20295;-72
2021/05/13 09:23:45;;;;;;;0.80;0.80;;;;;;;;;;5089567;28;20193;-70
2021/05/13 09:26:13;;;;;;;0.97;0.77;;;;;;;;;;5089034;28;20351;-71
2021/05/13 09:28:45;;;;;;;0.80;0.70;;;;;;;;;;5083053;28;20228;-72
2021/05/13 09:31:30;;;;;;;0.50;0.50;;;;;;;;;;5090904;28;20232;-72
2021/05/13 09:34:01;;;;;;;0.63;0.63;;;;;;;;;;5090164;28;20216;-72
2021/05/13 09:36:28;;;;;;;0.80;0.60;;;;;;;;;;5091632;28;20639;-72
2021/05/13 09:38:54;;;;;;;0.80;0.70;;;;;;;;;;5092124;28;20235;-72
2021/05/13 09:41:36;;;;;;;0.60;0.60;;;;;;;;;;5092057;28;20228;-72
2021/05/13 09:44:22;;;;;;;2.80;0.80;;;;;;;;;;5079383;28;20284;-72
2021/05/13 09:46:49;;;;;;;2.13;0.93;;;;;;;;;;5069604;28;20220;-72
2021/05/13 09:49:16;;;;;;;0.97;0.90;;;;;;;;;;5077544;28;20191;-72
2021/05/13 09:51:42;;;;;;;1.97;1.10;;;;;;;;;;5105403;28;20208;-72
2021/05/13 09:54:10;;;;;;;0.60;0.40;;;;;;;;;;5088826;28;20236;-74
2021/05/13 09:56:38;;;;;;;0.63;0.40;;;;;;;;;;5092928;28;20232;-73
2021/05/13 09:59:20;;;;;;;2.67;1.13;;;;;;;;;;5092195;28;20204;-73
2021/05/13 10:01:47;;;;;;;0.60;0.60;;;;;;;;;;5093529;28;20192;-72
2021/05/13 10:04:14;;;;;;;1.03;0.70;;;;;;;;;;5093617;28;20788;-73
2021/05/13 10:06:40;;;;;;;0.53;0.53;;;;;;;;;;5093826;28;20291;-75
2021/05/13 10:09:07;;;;;;;0.57;0.57;;;;;;;;;;5093256;28;20284;-70
2021/05/13 10:11:34;;;;;;;0.60;0.50;;;;;;;;;;5092550;28;20287;-73
2021/05/13 10:14:01;;;;;;;1.30;0.70;;;;;;;;;;5093517;28;20212;-74
2021/05/13 10:16:28;;;;;;;0.57;0.50;;;;;;;;;;5091800;28;20224;-74
2021/05/13 10:18:57;;;;;;;1.67;0.63;;;;;;;;;;5092860;28;20296;-74
2021/05/13 10:21:25;;;;;;;0.60;0.60;;;;;;;;;;5090140;28;20684;-74
2021/05/13 10:23:53;;;;;;;0.57;0.57;;;;;;;;;;5090799;28;20239;-74
2021/05/13 10:26:32;;;;;;;0.43;0.43;;;;;;;;;;5091933;28;20307;-75
2021/05/13 10:28:59;;;;;;;3.20;0.83;;;;;;;;;;5092417;28;20263;-75
2021/05/13 10:31:35;;;;;;;0.70;0.70;;;;;;;;;;5093049;28;20291;-75
2021/05/13 10:34:02;;;;;;;1.53;0.40;;;;;;;;;;5093186;28;20220;-75
2021/05/13 10:36:28;;;;;;;0.93;0.60;;;;;;;;;;5093017;28;20708;-78
2021/05/13 10:39:15;;;;;;;1.23;0.73;;;;;;;;;;5091998;28;20292;-75
2021/05/13 10:41:41;;;;;;;0.40;0.40;;;;;;;;;;5092872;28;20200;-70
2021/05/13 10:44:11;;;;;;;0.53;0.27;;;;;;;;;;5093023;28;20201;-70
2021/05/13 10:46:38;;;;;;;0.30;0.30;;;;;;;;;;5092799;28;20266;-69
2021/05/13 10:49:17;;;;;;;0.57;0.53;;;;;;;;;;5093268;28;20279;-70
2021/05/13 10:51:44;;;;;;;1.43;0.53;;;;;;;;;;5113578;28;20234;-71
2021/05/13 10:54:30;;;;;;;0.83;0.53;;;;;;;;;;5111834;28;20290;-70
2021/05/13 10:57:11;;;;;;;0.40;0.30;;;;;;;;;;5113341;28;20224;-71
2021/05/13 10:59:38;;;;;;;0.60;0.60;;;;;;;;;;5089094;28;20592;-68
2021/05/13 11:02:04;;;;;;;0.97;0.60;;;;;;;;;;5091619;28;20205;-69
2021/05/13 11:04:30;;;;;;;0.30;0.30;;;;;;;;;;5083893;28;20646;-69
2021/05/13 11:06:57;;;;;;;2.97;0.53;;;;;;;;;;5081097;28;20251;-69
2021/05/13 11:12:13;;;;;;;0.30;0.30;;;;;;;;;;5086700;28;20952;-69
2021/05/13 11:15:07;;;;;;;0.37;0.37;;;;;;;;;;5085848;28;20738;-70
2021/05/13 11:17:45;;;;;;;0.37;0.37;;;;;;;;;;5087642;28;20260;-71
2021/05/13 11:20:31;;;;;;;0.20;0.20;;;;;;;;;;5090591;28;20205;-70
2021/05/13 11:23:05;;;;;;;0.63;0.50;;;;;;;;;;5091088;28;20232;-70
2021/05/13 11:25:41;;;;;;;0.40;0.40;;;;;;;;;;5091051;28;20212;-68
2021/05/13 11:28:26;;;;;;;0.50;0.50;;;;;;;;;;5092331;28;20252;-69
2021/05/13 11:30:55;;;;;;;0.50;0.40;;;;;;;;;;5092096;28;20215;-73
2021/05/13 11:33:21;;;;;;;0.30;0.30;;;;;;;;;;5092094;28;20244;-71
2021/05/13 11:35:48;;;;;;;0.40;0.37;;;;;;;;;;5091555;28;20220;-70
2021/05/13 11:38:22;;;;;;;0.30;0.30;;;;;;;;;;5091437;28;20243;-70
2021/05/13 11:40:49;;;;;;;0.20;0.20;;;;;;;;;;5091386;28;20822;-71
2021/05/13 11:43:16;;;;;;;0.30;0.20;;;;;;;;;;5084760;28;20274;-74
2021/05/13 11:45:43;;;;;;;0.30;0.30;;;;;;;;;;5070988;28;20532;-69
2021/05/13 11:48:18;;;;;;;0.70;0.37;;;;;;;;;;5077559;28;20236;-68
2021/05/13 11:50:45;;;;;;;0.73;0.40;;;;;;;;;;5090081;28;20685;-68
2021/05/13 11:53:14;;;;;;;0.30;0.30;;;;;;;;;;5086046;28;20200;-68
2021/05/13 11:55:41;;;;;;;1.23;0.30;;;;;;;;;;5088283;28;20236;-69
2021/05/13 11:58:08;;;;;;;0.97;0.80;;;;;;;;;;5088302;28;20482;-71
2021/05/13 12:00:35;;;;;;;0.70;0.67;;;;;;;;;;5090211;28;20228;-69
2021/05/13 12:03:12;;;;;;;0.50;0.40;;;;;;;;;;5090959;28;20196;-68
2021/05/13 12:05:52;;;;;;;0.77;0.70;;;;;;;;;;5090799;28;20228;-75
2021/05/13 12:08:20;;;;;;;0.20;0.20;;;;;;;;;;5090034;28;20267;-74
2021/05/13 12:10:46;;;;;;;0.47;0.47;;;;;;;;;;5073077;28;20232;-74
2021/05/13 12:13:13;;;;;;;0.57;0.23;;;;;;;;;;5091159;28;20856;-72
2021/05/13 12:15:40;;;;;;;0.13;0.13;;;;;;;;;;5090731;28;20240;-74
2021/05/13 12:18:07;;;;;;;0.10;0.10;;;;;;;;;;5088843;28;20259;-73
2021/05/13 12:20:37;;;;;;;0.30;0.30;;;;;;;;;;5091157;28;20242;-73
2021/05/13 12:23:04;;;;;;;0.50;0.50;;;;;;;;;;5089655;28;20236;-73
2021/05/13 12:25:31;;;;;;;0.50;0.40;;;;;;;;;;5090980;28;20298;-74
2021/05/13 12:27:58;;;;;;;0.53;0.50;;;;;;;;;;5090794;28;20220;-73
2021/05/13 12:30:24;;;;;;;0.90;0.40;;;;;;;;;;5090834;28;20735;-74
2021/05/13 12:32:51;;;;;;;1.00;0.90;;;;;;;;;;5089389;28;20235;-74
2021/05/13 12:35:32;;;;;;;1.80;1.03;;;;;;;;;;5090875;28;20208;-74
2021/05/13 12:38:12;;;;;;;0.47;0.47;;;;;;;;;;5089440;28;20232;-74
2021/05/13 12:40:39;;;;;;;1.37;0.60;;;;;;;;;;5090344;28;20208;-74
2021/05/13 12:43:25;;;;;;;0.30;0.30;;;;;;;;;;5086773;28;20226;-74
2021/05/13 12:45:52;;;;;;;0.37;0.37;;;;;;;;;;5071425;28;20221;-74
2021/05/13 12:48:22;;;;;;;0.40;0.30;;;;;;;;;;5070467;28;20232;-74
2021/05/13 12:51:06;;;;;;;0.33;0.33;;;;;;;;;;5101419;28;20661;-74
2021/05/13 12:53:32;;;;;;;0.30;0.30;;;;;;;;;;5111033;28;20282;-74
2021/05/13 12:55:59;;;;;;;0.57;0.57;;;;;;;;;;5110441;28;20306;-75
2021/05/13 12:58:27;;;;;;;0.30;0.30;;;;;;;;;;5099707;28;20224;-75
2021/05/13 13:00:53;;;;;;;0.67;0.50;;;;;;;;;;5089187;28;20587;-74
2021/05/13 13:03:28;;;;;;;0.50;0.50;;;;;;;;;;5090353;28;20235;-75
2021/05/13 13:06:07;;;;;;;0.47;0.47;;;;;;;;;;5089757;28;20309;-75
2021/05/13 13:08:38;;;;;;;0.57;0.50;;;;;;;;;;5089990;28;20231;-75
2021/05/13 13:11:05;;;;;;;0.40;0.27;;;;;;;;;;5088678;28;20203;-74
2021/05/13 13:13:40;;;;;;;0.40;0.40;;;;;;;;;;5088847;28;20265;-74
2021/05/13 13:16:18;;;;;;;0.63;0.50;;;;;;;;;;5072116;28;20240;-75
2021/05/13 13:18:45;;;;;;;0.47;0.47;;;;;;;;;;5089783;28;20225;-75
2021/05/13 13:21:15;;;;;;;0.60;0.50;;;;;;;;;;5089971;28;20212;-73
2021/05/13 13:23:42;;;;;;;0.50;0.50;;;;;;;;;;5089441;28;20235;-74
2021/05/13 13:26:09;;;;;;;0.57;0.50;;;;;;;;;;5087687;28;20867;-72
2021/05/13 13:28:38;;;;;;;0.40;0.40;;;;;;;;;;5089170;28;20228;-69
2021/05/13 13:31:08;;;;;;;0.37;0.33;;;;;;;;;;5090097;28;20197;-71
2021/05/13 13:33:36;;;;;;;1.67;0.60;;;;;;;;;;5089347;28;20677;-70
2021/05/13 13:36:03;;;;;;;0.33;0.33;;;;;;;;;;5087852;28;20230;-70
2021/05/13 13:38:30;;;;;;;1.17;0.97;;;;;;;;;;5089922;28;20220;-69
2021/05/13 13:40:57;;;;;;;2.73;1.07;;;;;;;;;;5089109;28;20239;-69
2021/05/13 13:43:25;;;;;;;1.13;0.80;;;;;;;;;;5089252;28;20291;-69
2021/05/13 13:45:56;;;;;;;1.00;0.73;;;;;;;;;;5089196;28;20307;-70
2021/05/13 13:48:23;;;;;;;0.53;0.53;;;;;;;;;;5089209;28;20675;-69
2021/05/13 13:50:50;;;;;;;0.70;0.70;;;;;;;;;;5105517;28;20229;-69
2021/05/13 13:53:18;;;;;;;0.50;0.50;;;;;;;;;;5109659;28;20368;-69
2021/05/13 13:55:48;;;;;;;0.90;0.77;;;;;;;;;;5109145;28;20302;-69
2021/05/13 13:58:14;;;;;;;2.53;0.77;;;;;;;;;;5098891;28;20235;-69
2021/05/13 14:00:41;;;;;;;1.60;0.93;;;;;;;;;;5089025;28;20277;-69
2021/05/13 14:03:07;;;;;;;4.63;0.93;;;;;;;;;;5087574;28;20235;-69
2021/05/13 14:05:34;;;;;;;0.97;0.87;;;;;;;;;;5089198;28;20281;-69
2021/05/13 14:08:00;;;;;;;0.87;0.80;;;;;;;;;;5089078;28;20247;-69
2021/05/13 14:10:29;;;;;;;1.23;1.13;;;;;;;;;;5071722;28;20805;-70
2021/05/13 14:12:56;;;;;;;1.17;0.90;;;;;;;;;;5088398;28;20208;-70
2021/05/13 14:15:23;;;;;;;2.60;1.13;;;;;;;;;;5089381;28;20232;-69
2021/05/13 14:17:50;;;;;;;1.00;0.90;;;;;;;;;;5089400;28;20311;-69
2021/05/13 14:20:17;;;;;;;2.27;1.23;;;;;;;;;;5089552;28;20232;-71
2021/05/13 14:22:44;;;;;;;3.33;1.90;;;;;;;;;;5089787;28;20291;-69
2021/05/13 14:25:11;;;;;;;2.13;1.23;;;;;;;;;;5090017;28;20212;-70
2021/05/13 14:27:37;;;;;;;0.70;0.70;;;;;;;;;;5089353;28;20315;-69
2021/05/13 14:30:05;;;;;;;1.20;0.90;;;;;;;;;;5089513;28;20287;-70
2021/05/13 14:32:31;;;;;;;1.33;1.00;;;;;;;;;;5089115;28;20251;-69
2021/05/13 14:34:57;;;;;;;1.17;0.97;;;;;;;;;;5089400;28;20208;-69
2021/05/13 14:37:24;;;;;;;2.33;1.20;;;;;;;;;;5088838;28;20267;-70
2021/05/13 14:39:51;;;;;;;1.07;0.97;;;;;;;;;;5088785;28;20752;-69
2021/05/13 14:42:17;;;;;;;1.20;1.10;;;;;;;;;;5092902;28;20253;-70
2021/05/13 14:44:43;;;;;;;1.10;1.00;;;;;;;;;;5092280;28;20930;-70
2021/05/13 14:47:10;;;;;;;3.17;1.47;;;;;;;;;;5091286;28;20256;-69
2021/05/13 14:49:37;;;;;;;2.77;1.53;;;;;;;;;;5098579;28;20278;-69
2021/05/13 14:52:04;;;;;;;0.90;0.70;;;;;;;;;;5112931;28;20214;-70
2021/05/13 14:54:51;;;;;;;1.17;0.90;;;;;;;;;;5092100;28;20205;-70
2021/05/13 14:57:17;;;;;;;1.50;0.93;;;;;;;;;;5079108;28;20293;-70
2021/05/13 14:59:43;;;;;;;1.57;0.97;;;;;;;;;;5087372;28;20205;-70
2021/05/13 15:02:15;;;;;;;0.93;0.80;;;;;;;;;;5066621;28;20688;-71
2021/05/13 15:04:43;;;;;;;1.10;0.83;;;;;;;;;;5064755;28;20692;-70
2021/05/13 15:07:10;;;;;;;0.60;0.60;;;;;;;;;;5066697;28;20713;-71
2021/05/13 15:09:37;;;;;;;1.20;0.60;;;;;;;;;;5067407;28;20903;-73